Bookmark and Share
Track history (hours):
 

Bettina K

Last reported at 2014-Apr-24 02:25 UTC. Time now 2014-Apr-24 06:08 UTC.
Position N 54°55' E 017°21'.

Length 88 m; draft 5.2 m.

Type: Cargo ship. MMSI: 246193000.

NotesDate/timePositionNaut miles runAvg speedWind from/ knotsBaromVisibWave heightAir tempDewpointWater temp
2014-Apr-24 02:25N 54°55' E 017°21'8 9.4
2014-Apr-24 01:33N 54°55' E 017°36'9 9.1
2014-Apr-24 00:33N 54°55' E 017°52'9 9.1
2014-Apr-23 23:34N 54°55' E 018°07'9 9.2
2014-Apr-23 22:33N 54°54' E 018°23'8 8.4
2014-Apr-23 21:33N 54°51' E 018°36'8 8.2
2014-Apr-23 20:33N 54°45' E 018°47'8 7.9
2014-Apr-23 19:33N 54°40' E 018°57'9 8.7
2014-Apr-23 18:33N 54°32' E 018°49'9 8.9
2014-Apr-23 17:33N 54°26' E 018°39'2 2.3
2014-Apr-23 16:33N 54°24' E 018°40'0 0.0
2014-Apr-23 15:33N 54°24' E 018°40'0 0.0
2014-Apr-23 14:33N 54°24' E 018°40'0 0.0
2014-Apr-23 13:33N 54°24' E 018°40'0 0.0
2014-Apr-23 12:33N 54°24' E 018°40'0 0.0
2014-Apr-23 11:33N 54°24' E 018°40'0 0.0
2014-Apr-23 10:32N 54°24' E 018°40'0 0.0
2014-Apr-23 09:33N 54°24' E 018°40'0 0.0
2014-Apr-23 08:32N 54°24' E 018°40'0 0.0
2014-Apr-23 07:32N 54°24' E 018°40'0 0.0
2014-Apr-23 06:27N 54°24' E 018°40'0 0.0
2014-Apr-23 05:33N 54°24' E 018°40'0 0.0
2014-Apr-23 04:32N 54°24' E 018°40'0 0.0
2014-Apr-23 03:32N 54°24' E 018°40'0 0.0
2014-Apr-23 02:32N 54°24' E 018°40'0 0.0
2014-Apr-23 01:32N 54°24' E 018°40'0 0.0
2014-Apr-23 00:32N 54°24' E 018°40'0 0.0
2014-Apr-22 23:32N 54°24' E 018°40'0 0.0
2014-Apr-22 22:32N 54°24' E 018°40'0 0.0
2014-Apr-22 21:32N 54°24' E 018°40'0 0.0
2014-Apr-22 20:32N 54°24' E 018°40'0 0.0
2014-Apr-22 19:32N 54°24' E 018°40'0 0.0
2014-Apr-22 18:32N 54°24' E 018°40'0 0.0
2014-Apr-22 17:32N 54°24' E 018°40'0 0.0
2014-Apr-22 16:32N 54°24' E 018°40'0 0.0
2014-Apr-22 15:32N 54°24' E 018°40'0 0.0
2014-Apr-22 14:32N 54°24' E 018°40'0 0.0
2014-Apr-22 13:29N 54°24' E 018°40'0 0.0
2014-Apr-22 12:32N 54°24' E 018°40'0 0.0
2014-Apr-22 11:32N 54°24' E 018°40'0 0.0
2014-Apr-22 10:29N 54°24' E 018°40'0 0.0
2014-Apr-22 09:32N 54°24' E 018°40'0 0.0
2014-Apr-22 08:32N 54°24' E 018°40'0 0.0
2014-Apr-22 07:32N 54°24' E 018°40'0 0.0
2014-Apr-22 06:32N 54°24' E 018°40'0 0.0
2014-Apr-22 05:32N 54°24' E 018°40'0 0.0
2014-Apr-22 04:32N 54°24' E 018°40'0 0.0
2014-Apr-22 03:29N 54°24' E 018°40'0 0.0
2014-Apr-22 02:29N 54°24' E 018°40'0 0.0
2014-Apr-22 01:32N 54°24' E 018°40'0 0.0
2014-Apr-22 00:32N 54°24' E 018°40'0 0.0
2014-Apr-21 23:32N 54°24' E 018°40'0 0.0
2014-Apr-21 22:32N 54°24' E 018°40'0 0.0
2014-Apr-21 21:32N 54°24' E 018°40'0 0.0
2014-Apr-21 20:32N 54°24' E 018°40'0 0.0
2014-Apr-21 19:26N 54°24' E 018°40'0 0.0
2014-Apr-21 18:31N 54°24' E 018°40'0 0.0
2014-Apr-21 17:31N 54°24' E 018°40'0 0.0
2014-Apr-21 16:31N 54°24' E 018°40'0 0.0
2014-Apr-21 15:13N 54°24' E 018°40'0 0.0
2014-Apr-21 14:31N 54°24' E 018°40'0 0.0
2014-Apr-21 13:31N 54°24' E 018°40'0 0.0
2014-Apr-21 12:31N 54°24' E 018°40'0 0.0
2014-Apr-21 11:28N 54°24' E 018°40'0 0.0
2014-Apr-21 10:28N 54°24' E 018°40'0 0.0
2014-Apr-21 09:31N 54°24' E 018°40'0 0.0
2014-Apr-21 08:31N 54°24' E 018°40'0 0.0
2014-Apr-21 07:28N 54°24' E 018°40'0 0.0
2014-Apr-21 06:31N 54°24' E 018°40'0 0.0
2014-Apr-21 05:25N 54°24' E 018°40'0 0.0
2014-Apr-21 04:31N 54°24' E 018°40'0 0.0
2014-Apr-21 03:31N 54°24' E 018°40'0 0.0
2014-Apr-21 02:31N 54°24' E 018°40'0 0.0
2014-Apr-21 01:31N 54°24' E 018°40'0 0.0
2014-Apr-21 00:31N 54°24' E 018°40'0 0.0
2014-Apr-20 23:31N 54°24' E 018°40'0 0.0
2014-Apr-20 22:31N 54°24' E 018°40'0 0.0
2014-Apr-20 21:31N 54°24' E 018°40'0 0.0
2014-Apr-20 20:31N 54°24' E 018°40'0 0.0
2014-Apr-20 19:31N 54°24' E 018°40'0 0.0
2014-Apr-20 18:31N 54°24' E 018°40'0 0.0
2014-Apr-20 17:31N 54°24' E 018°40'0 0.0
2014-Apr-20 16:31N 54°24' E 018°40'0 0.0
2014-Apr-20 15:31N 54°24' E 018°40'0 0.0
2014-Apr-20 14:31N 54°24' E 018°40'0 0.0
2014-Apr-20 13:31N 54°24' E 018°40'0 0.0
2014-Apr-20 12:31N 54°24' E 018°40'0 0.0
2014-Apr-20 11:31N 54°24' E 018°40'0 0.0
2014-Apr-20 10:31N 54°24' E 018°40'0 0.0
2014-Apr-20 09:31N 54°24' E 018°40'0 0.0
2014-Apr-20 08:31N 54°24' E 018°40'0 0.0
2014-Apr-20 07:34N 54°24' E 018°40'0 0.0
2014-Apr-20 06:34N 54°24' E 018°40'0 0.0
2014-Apr-20 05:34N 54°24' E 018°40'0 0.0
2014-Apr-20 04:34N 54°24' E 018°40'0 0.0
2014-Apr-20 03:33N 54°24' E 018°40'0 0.0
2014-Apr-20 02:30N 54°24' E 018°40'0 0.0
2014-Apr-20 01:31N 54°24' E 018°40'0 0.0
2014-Apr-20 00:33N 54°24' E 018°40'0 0.0
2014-Apr-19 23:33N 54°24' E 018°40'0 0.0
2014-Apr-19 22:30N 54°24' E 018°40'0 0.0
2014-Apr-19 21:33N 54°24' E 018°40'0 0.0
2014-Apr-19 20:33N 54°24' E 018°40'0 0.0
2014-Apr-19 19:30N 54°24' E 018°40'0 0.0
2014-Apr-19 18:33N 54°24' E 018°40'0 0.0
2014-Apr-19 17:30N 54°24' E 018°40'0 0.0
2014-Apr-19 16:33N 54°24' E 018°40'0 0.0
2014-Apr-19 15:33N 54°24' E 018°40'0 0.0
2014-Apr-19 14:33N 54°24' E 018°40'0 0.0
2014-Apr-19 13:33N 54°24' E 018°40'0 0.0
2014-Apr-19 12:33N 54°24' E 018°40'0 0.0
2014-Apr-19 11:33N 54°24' E 018°40'0 0.0
2014-Apr-19 10:33N 54°24' E 018°40'0 0.0
2014-Apr-19 09:27N 54°24' E 018°40'0 0.0
2014-Apr-19 08:30N 54°24' E 018°40'1 0.6
2014-Apr-19 07:33N 54°24' E 018°41'5 5.2
2014-Apr-19 06:33N 54°29' E 018°44'7 7.2
2014-Apr-19 05:33N 54°35' E 018°52'7 7.0
2014-Apr-19 04:34N 54°41' E 018°57'6 6.2
2014-Apr-19 03:34N 54°47' E 018°55'8 7.6
2014-Apr-19 02:34N 54°52' E 018°44'7 7.3
2014-Apr-19 01:33N 54°55' E 018°33'8 7.7
2014-Apr-19 00:33N 54°54' E 018°19'8 7.7
2014-Apr-18 23:33N 54°54' E 018°06'8 7.7
2014-Apr-18 22:33N 54°53' E 017°53'8 7.8
2014-Apr-18 21:34N 54°51' E 017°39'4 1.2
2014-Apr-18 18:33N 54°52' E 017°33'3 2.6
2014-Apr-18 17:33N 54°53' E 017°29'104 9.4
2014-Apr-18 06:31N 54°36' E 014°31'7 7.1
2014-Apr-18 05:29N 54°37' E 014°19'9 9.8
2014-Apr-18 04:33N 54°41' E 014°05'1010.3
2014-Apr-18 03:33N 54°48' E 013°52'1010.5
2014-Apr-18 02:33N 54°54' E 013°38'2010.1
2014-Apr-18 00:33N 55°07' E 013°10'10 9.9
2014-Apr-17 23:33N 55°13' E 012°56'10 9.9
2014-Apr-17 22:33N 55°17' E 012°41'9 8.6
2014-Apr-17 21:33N 55°26' E 012°40'10 9.9
2014-Apr-17 20:33N 55°36' E 012°42'9 8.8
2014-Apr-17 19:33N 55°45' E 012°41'9 8.8
2014-Apr-17 18:33N 55°53' E 012°39'9 8.7
2014-Apr-17 17:33N 56°02' E 012°38'9 8.6
2014-Apr-17 16:33N 56°08' E 012°28'1010.1
2014-Apr-17 15:33N 56°14' E 012°13'9 8.9
2014-Apr-17 14:33N 56°21' E 012°02'10 9.5
2014-Apr-17 13:33N 56°30' E 011°58'9 9.0
2014-Apr-17 12:32N 56°39' E 011°55'8 8.4
2014-Apr-17 11:33N 56°47' E 011°51'9 8.9
2014-Apr-17 10:33N 56°56' E 011°46'9 8.7
2014-Apr-17 09:33N 57°04' E 011°40'9 8.6
2014-Apr-17 08:33N 57°12' E 011°39'9 8.8
2014-Apr-17 07:33N 57°21' E 011°39'9 9.0
2014-Apr-17 06:33N 57°30' E 011°38'9 9.4
2014-Apr-17 05:33N 57°39' E 011°42'9 8.7
2014-Apr-17 04:33N 57°42' E 011°57'6 6.2
2014-Apr-17 03:33N 57°48' E 012°01'7 7.0
2014-Apr-17 02:33N 57°55' E 012°03'9 8.5
2014-Apr-17 01:33N 58°03' E 012°09'6 2.8
2014-Apr-16 23:30N 58°09' E 012°08'8 4.2
2014-Apr-16 21:33N 58°16' E 012°16'5 5.3
2014-Apr-16 20:33N 58°20' E 012°21'4 4.2
2014-Apr-16 19:33N 58°25' E 012°20'1110.5
2014-Apr-16 18:33N 58°32' E 012°34'3 0.1
2014-Apr-14 23:31N 58°34' E 012°38'8 8.9
2014-Apr-14 22:34N 58°28' E 012°27'7 7.0
2014-Apr-14 21:34N 58°22' E 012°19'2 2.3
2014-Apr-14 20:33N 58°20' E 012°21'5 4.9
2014-Apr-14 19:34N 58°16' E 012°16'16 3.2
2014-Apr-14 14:33N 58°01' E 012°08'6 6.6
2014-Apr-14 13:34N 57°55' E 012°03'10 5.2
2014-Apr-14 11:34N 57°44' E 012°00'6 5.9
2014-Apr-14 10:34N 57°41' E 011°51'8 8.0
2014-Apr-14 09:34N 57°36' E 011°39'8 8.2
2014-Apr-14 08:34N 57°38' E 011°25'10 9.5
2014-Apr-14 07:34N 57°43' E 011°10'10 9.9
2014-Apr-14 06:33N 57°48' E 010°53'1111.2
2014-Apr-14 05:33N 57°48' E 010°32'  

Dump ship's entire track history

sailing weather and tide predictions

Bettina K — PBEW — position and weather